Wilson Lista — 8PRW — position and weather

sailwx.info

Track history (hours):
 
Tides and Currents Weather Stations Pressure Air Temp Water Temp Dewpoint Dewpoint Depression Visibility Wind Speed Wind Dir Waves Ship Positions

Wilson Lista

Last reported at 2014-Sep-11 23:28 UTC. Time now 2014-Sep-21 02:02 UTC.
Position N 62°29' W 006°49'.
Warning: this ship's position is 9 days out of date.

Length 88 m; draft 4 m.

Type: Cargo ship. MMSI: 314188000.

Date/timePositionNaut miles runAvg speedWind from/ knotsBaromVisibWave heightAir tempDewpointWater temp
2014-Sep-11 23:28N 62°29' W 006°49'423 9.4
2014-Sep-10 02:11N 63°32' W 022°11'40 5.9
2014-Sep-09 19:26N 64°09' W 022°42'8 8.7
2014-Sep-09 18:33N 64°09' W 022°25'8 8.5
2014-Sep-09 17:33N 64°13' W 022°08'9 8.6
2014-Sep-09 16:33N 64°19' W 021°52'4 3.6
2014-Sep-09 15:31N 64°21' W 021°46'0 0.0
2014-Sep-09 14:30N 64°21' W 021°46'0 0.0
2014-Sep-09 13:30N 64°21' W 021°46'0 0.0
2014-Sep-09 12:32N 64°21' W 021°46'0 0.0
2014-Sep-09 11:32N 64°21' W 021°46'0 0.0
2014-Sep-09 10:23N 64°21' W 021°46'0 0.0
2014-Sep-09 09:31N 64°21' W 021°46'0 0.0
2014-Sep-09 08:31N 64°21' W 021°47'0 0.0
2014-Sep-09 07:33N 64°21' W 021°46'0 0.0
2014-Sep-09 06:33N 64°21' W 021°47'0 0.0
2014-Sep-09 05:32N 64°21' W 021°47'0 0.0
2014-Sep-09 04:32N 64°21' W 021°46'0 0.0
2014-Sep-09 03:32N 64°21' W 021°47'0 0.0
2014-Sep-09 02:32N 64°21' W 021°46'6 6.3
2014-Sep-09 01:33N 64°17' W 021°56'7 7.2
2014-Sep-09 00:33N 64°11' W 022°05'38 5.2
2014-Sep-08 17:22N 63°34' W 022°20'  
2014-Sep-05 12:33N 58°60' W 004°16'8 8.4
2014-Sep-05 11:33N 58°56' W 004°02'9 8.7
2014-Sep-05 10:33N 58°52' W 003°47'9 8.9
2014-Sep-05 09:34N 58°48' W 003°32'17 8.6
2014-Sep-05 07:31N 58°42' W 003°00'69 8.6
2014-Sep-04 23:32N 57°46' W 001°44'9 9.0
2014-Sep-04 22:33N 57°38' W 001°35'9 8.6
2014-Sep-04 21:33N 57°31' W 001°26'8 7.9
2014-Sep-04 20:30N 57°24' W 001°20'46 9.0
2014-Sep-04 15:20N 56°43' W 000°37'910.4
2014-Sep-04 14:31N 56°36' W 000°30'67 9.4
2014-Sep-04 07:23N 55°38' E 000°29'9 9.8
2014-Sep-04 06:27N 55°30' E 000°37'211 9.1
2014-Sep-03 07:20N 52°38' E 004°04'7 9.5
2014-Sep-03 06:33N 52°32' E 004°11'9 9.4
2014-Sep-03 05:33N 52°29' E 004°27'6 6.0
2014-Sep-03 04:33N 52°28' E 004°36'6 5.5
2014-Sep-03 03:33N 52°26' E 004°44'2 2.2
2014-Sep-03 02:31N 52°24' E 004°47'0 0.0
2014-Sep-03 01:33N 52°24' E 004°47'0 0.0
2014-Sep-03 00:33N 52°24' E 004°47'0 0.0
2014-Sep-02 23:32N 52°24' E 004°47'0 0.0
2014-Sep-02 22:32N 52°24' E 004°47'0 0.0
2014-Sep-02 21:31N 52°24' E 004°47'0 0.0
2014-Sep-02 20:28N 52°24' E 004°47'0 0.0
2014-Sep-02 19:31N 52°24' E 004°47'0 0.0
2014-Sep-02 18:33N 52°24' E 004°47'0 0.0
2014-Sep-02 17:33N 52°24' E 004°47'0 0.0
2014-Sep-02 16:29N 52°24' E 004°47'0 0.0
2014-Sep-02 15:32N 52°24' E 004°47'0 0.1
2014-Sep-02 14:31N 52°24' E 004°47'0 0.0
2014-Sep-02 13:28N 52°24' E 004°47'0 0.0
2014-Sep-02 12:31N 52°24' E 004°47'0 0.0
2014-Sep-02 11:33N 52°24' E 004°47'0 0.0
2014-Sep-02 10:33N 52°24' E 004°47'0 0.0
2014-Sep-02 09:32N 52°24' E 004°47'0 0.0
2014-Sep-02 08:29N 52°24' E 004°47'0 0.0
2014-Sep-02 07:31N 52°24' E 004°47'0 0.0
2014-Sep-02 06:31N 52°24' E 004°47'0 0.0
2014-Sep-02 05:30N 52°24' E 004°47'0 0.0
2014-Sep-02 04:33N 52°24' E 004°47'0 0.0
2014-Sep-02 03:33N 52°24' E 004°47'0 0.0
2014-Sep-02 02:29N 52°24' E 004°47'0 0.0
2014-Sep-02 01:26N 52°24' E 004°47'0 0.0
2014-Sep-02 00:25N 52°24' E 004°47'0 0.0
2014-Sep-01 23:31N 52°24' E 004°47'  
Track history (hours):
 
Tides and Currents Weather Stations Pressure Air Temp Water Temp Dewpoint Dewpoint Depression Visibility Wind Speed Wind Dir Waves Ship Positions

Wilson Lista

Last reported at 2014-Sep-11 23:28 UTC. Time now 2014-Sep-21 02:02 UTC.
Position N 62°29' W 006°49'.
Warning: this ship's position is 9 days out of date.

Length 88 m; draft 4 m.

Type: Cargo ship. MMSI: 314188000.

Date/timePositionNaut miles runAvg speedWind from/ knotsBaromVisibWave heightAir tempDewpointWater temp
2014-Sep-11 23:28N 62°29' W 006°49'423 9.4
2014-Sep-10 02:11N 63°32' W 022°11'40 5.9
2014-Sep-09 19:26N 64°09' W 022°42'8 8.7
2014-Sep-09 18:33N 64°09' W 022°25'8 8.5
2014-Sep-09 17:33N 64°13' W 022°08'9 8.6
2014-Sep-09 16:33N 64°19' W 021°52'4 3.6
2014-Sep-09 15:31N 64°21' W 021°46'0 0.0
2014-Sep-09 14:30N 64°21' W 021°46'0 0.0
2014-Sep-09 13:30N 64°21' W 021°46'0 0.0
2014-Sep-09 12:32N 64°21' W 021°46'0 0.0
2014-Sep-09 11:32N 64°21' W 021°46'0 0.0
2014-Sep-09 10:23N 64°21' W 021°46'0 0.0
2014-Sep-09 09:31N 64°21' W 021°46'0 0.0
2014-Sep-09 08:31N 64°21' W 021°47'0 0.0
2014-Sep-09 07:33N 64°21' W 021°46'0 0.0
2014-Sep-09 06:33N 64°21' W 021°47'0 0.0
2014-Sep-09 05:32N 64°21' W 021°47'0 0.0
2014-Sep-09 04:32N 64°21' W 021°46'0 0.0
2014-Sep-09 03:32N 64°21' W 021°47'0 0.0
2014-Sep-09 02:32N 64°21' W 021°46'6 6.3
2014-Sep-09 01:33N 64°17' W 021°56'7 7.2
2014-Sep-09 00:33N 64°11' W 022°05'38 5.2
2014-Sep-08 17:22N 63°34' W 022°20'  
2014-Sep-05 12:33N 58°60' W 004°16'8 8.4
2014-Sep-05 11:33N 58°56' W 004°02'9 8.7
2014-Sep-05 10:33N 58°52' W 003°47'9 8.9
2014-Sep-05 09:34N 58°48' W 003°32'17 8.6
2014-Sep-05 07:31N 58°42' W 003°00'69 8.6
2014-Sep-04 23:32N 57°46' W 001°44'9 9.0
2014-Sep-04 22:33N 57°38' W 001°35'9 8.6
2014-Sep-04 21:33N 57°31' W 001°26'8 7.9
2014-Sep-04 20:30N 57°24' W 001°20'46 9.0
2014-Sep-04 15:20N 56°43' W 000°37'910.4
2014-Sep-04 14:31N 56°36' W 000°30'67 9.4
2014-Sep-04 07:23N 55°38' E 000°29'9 9.8
2014-Sep-04 06:27N 55°30' E 000°37'211 9.1
2014-Sep-03 07:20N 52°38' E 004°04'7 9.5
2014-Sep-03 06:33N 52°32' E 004°11'9 9.4
2014-Sep-03 05:33N 52°29' E 004°27'6 6.0
2014-Sep-03 04:33N 52°28' E 004°36'6 5.5
2014-Sep-03 03:33N 52°26' E 004°44'2 2.2
2014-Sep-03 02:31N 52°24' E 004°47'0 0.0
2014-Sep-03 01:33N 52°24' E 004°47'0 0.0
2014-Sep-03 00:33N 52°24' E 004°47'0 0.0
2014-Sep-02 23:32N 52°24' E 004°47'0 0.0
2014-Sep-02 22:32N 52°24' E 004°47'0 0.0
2014-Sep-02 21:31N 52°24' E 004°47'0 0.0
2014-Sep-02 20:28N 52°24' E 004°47'0 0.0
2014-Sep-02 19:31N 52°24' E 004°47'0 0.0
2014-Sep-02 18:33N 52°24' E 004°47'0 0.0
2014-Sep-02 17:33N 52°24' E 004°47'0 0.0
2014-Sep-02 16:29N 52°24' E 004°47'0 0.0
2014-Sep-02 15:32N 52°24' E 004°47'0 0.1
2014-Sep-02 14:31N 52°24' E 004°47'0 0.0
2014-Sep-02 13:28N 52°24' E 004°47'0 0.0
2014-Sep-02 12:31N 52°24' E 004°47'0 0.0
2014-Sep-02 11:33N 52°24' E 004°47'0 0.0
2014-Sep-02 10:33N 52°24' E 004°47'0 0.0
2014-Sep-02 09:32N 52°24' E 004°47'0 0.0
2014-Sep-02 08:29N 52°24' E 004°47'0 0.0
2014-Sep-02 07:31N 52°24' E 004°47'0 0.0
2014-Sep-02 06:31N 52°24' E 004°47'0 0.0
2014-Sep-02 05:30N 52°24' E 004°47'0 0.0
2014-Sep-02 04:33N 52°24' E 004°47'0 0.0
2014-Sep-02 03:33N 52°24' E 004°47'0 0.0
2014-Sep-02 02:29N 52°24' E 004°47'0 0.0
2014-Sep-02 01:26N 52°24' E 004°47'0 0.0
2014-Sep-02 00:25N 52°24' E 004°47'0 0.0
2014-Sep-01 23:31N 52°24' E 004°47'  

Dump ship's entire track history